createdAt,value
2019-06-07T00:01:08.458Z,12.20
2019-06-07T00:03:37.371Z,12.23
2019-06-07T00:06:07.131Z,12.30
2019-06-07T00:08:37.059Z,12.34
2019-06-07T00:11:07.638Z,12.28
2019-06-07T00:13:36.807Z,12.15
2019-06-07T00:16:06.085Z,12.06
2019-06-07T00:18:35.211Z,12.00
2019-06-07T00:21:04.605Z,11.97
2019-06-07T00:23:33.580Z,11.88
2019-06-07T00:26:02.594Z,11.79
2019-06-07T00:28:31.615Z,11.84
2019-06-07T00:31:00.597Z,11.79
2019-06-07T00:33:29.890Z,11.68
2019-06-07T00:35:58.841Z,11.61
2019-06-07T00:38:27.783Z,11.64
2019-06-07T00:40:57.070Z,11.53
2019-06-07T00:43:28.446Z,11.44
2019-06-07T00:45:56.466Z,11.48
2019-06-07T00:48:32.005Z,11.34
2019-06-07T00:50:56.089Z,11.27
2019-06-07T00:53:31.246Z,11.27
2019-06-07T00:55:55.822Z,11.44
2019-06-07T00:58:27.849Z,11.44
2019-06-07T01:00:55.486Z,11.43
2019-06-07T01:03:25.897Z,11.44
2019-06-07T01:05:55.097Z,11.42
2019-06-07T01:08:28.266Z,11.42
2019-06-07T01:10:54.828Z,11.43
2019-06-07T01:13:26.471Z,11.38
2019-06-07T01:15:54.443Z,11.36
2019-06-07T01:18:37.883Z,11.36
2019-06-07T01:20:54.214Z,11.44
2019-06-07T01:23:59.875Z,11.42
2019-06-07T01:25:53.600Z,11.39
2019-06-07T01:28:26.387Z,11.36
2019-06-07T01:30:53.634Z,11.34
2019-06-07T01:33:26.262Z,11.29
2019-06-07T01:35:53.169Z,11.33
2019-06-07T01:38:24.990Z,11.27
2019-06-07T01:40:58.643Z,11.20
2019-06-07T01:43:29.137Z,11.21
2019-06-07T01:45:58.236Z,11.14
2019-06-07T01:48:46.180Z,11.03
2019-06-07T01:50:57.859Z,11.08
2019-06-07T01:53:46.017Z,10.98
2019-06-07T01:56:14.876Z,10.92
2019-06-07T01:58:43.931Z,10.78
2019-06-07T02:01:12.847Z,10.75
2019-06-07T02:03:41.835Z,10.78
2019-06-07T02:06:10.788Z,10.64
2019-06-07T02:08:39.654Z,10.61
2019-06-07T02:11:08.606Z,10.69
2019-06-07T02:13:37.560Z,10.64
2019-06-07T02:16:06.610Z,10.55
2019-06-07T02:18:35.525Z,10.59
2019-06-07T02:21:04.455Z,10.49
2019-06-07T02:23:33.797Z,10.48
2019-06-07T02:26:02.800Z,10.45
2019-06-07T02:28:44.685Z,10.53
2019-06-07T02:31:02.459Z,10.58
2019-06-07T02:33:39.628Z,10.46
2019-06-07T02:36:02.074Z,10.48
2019-06-07T02:38:35.933Z,10.43
2019-06-07T02:41:01.714Z,10.42
2019-06-07T02:43:36.265Z,10.61
2019-06-07T02:46:23.924Z,10.69
2019-06-07T02:48:38.569Z,10.74
2019-06-07T02:51:02.669Z,10.87
2019-06-07T02:53:38.369Z,10.68
2019-06-07T02:58:38.390Z,10.60
2019-06-07T03:01:09.203Z,10.52
2019-06-07T03:03:39.430Z,10.41
2019-06-07T03:06:05.619Z,10.35
2019-06-07T03:08:36.722Z,10.38
2019-06-07T03:11:06.637Z,10.76
2019-06-07T03:13:37.763Z,10.75
2019-06-07T03:16:09.300Z,10.78
2019-06-07T03:19:08.000Z,10.82
2019-06-07T03:21:41.734Z,10.70
2019-06-07T03:24:10.459Z,10.60
2019-06-07T03:27:29.126Z,10.69
2019-06-07T03:29:10.990Z,10.59
2019-06-07T03:31:46.669Z,10.58
2019-06-07T03:34:10.793Z,10.62
2019-06-07T03:36:40.387Z,10.69
2019-06-07T03:39:09.370Z,10.68
2019-06-07T03:41:49.802Z,10.72
2019-06-07T03:44:08.924Z,10.64
2019-06-07T03:46:41.180Z,10.73
2019-06-07T03:49:08.369Z,10.80
2019-06-07T03:51:39.640Z,10.80
2019-06-07T03:54:08.241Z,10.85
2019-06-07T03:56:38.655Z,10.83
2019-06-07T03:59:08.017Z,10.92
2019-06-07T04:01:39.798Z,11.07
2019-06-07T04:04:07.596Z,11.12
2019-06-07T04:06:39.494Z,11.14
2019-06-07T04:09:08.039Z,11.15
2019-06-07T04:11:39.411Z,11.21
2019-06-07T04:14:07.762Z,11.16
2019-06-07T04:16:41.674Z,11.10
2019-06-07T04:19:07.469Z,11.11
2019-06-07T04:21:39.479Z,11.10
2019-06-07T04:24:09.248Z,11.19
2019-06-07T04:26:43.167Z,11.18
2019-06-07T04:29:32.413Z,11.32
2019-06-07T04:31:42.741Z,11.32
2019-06-07T04:34:10.330Z,11.53
2019-06-07T04:36:56.473Z,11.78
2019-06-07T04:39:13.370Z,11.83
2019-06-07T04:41:44.361Z,11.74
2019-06-07T04:44:15.058Z,11.46
2019-06-07T04:46:45.557Z,11.57
2019-06-07T04:49:17.459Z,11.39
2019-06-07T04:51:47.618Z,11.48
2019-06-07T04:54:16.591Z,11.45
2019-06-07T04:56:45.451Z,11.64
2019-06-07T05:00:00.296Z,11.64
2019-06-07T05:01:45.085Z,11.84
2019-06-07T05:04:14.139Z,11.80
2019-06-07T05:06:43.084Z,11.48
2019-06-07T05:09:12.044Z,11.52
2019-06-07T05:11:44.758Z,11.38
2019-06-07T05:14:11.508Z,11.45
2019-06-07T05:16:43.873Z,11.39
2019-06-07T05:19:11.399Z,11.17
2019-06-07T05:22:01.538Z,11.25
2019-06-07T05:24:11.065Z,11.44
2019-06-07T05:26:42.814Z,11.54
2019-06-07T05:29:11.515Z,11.75
2019-06-07T05:31:45.103Z,11.75
2019-06-07T05:34:13.000Z,11.93
2019-06-07T05:36:45.037Z,12.08
2019-06-07T05:39:14.238Z,11.95
2019-06-07T05:41:44.414Z,12.40
2019-06-07T05:44:15.234Z,12.53
2019-06-07T05:46:47.048Z,12.89
2019-06-07T05:49:14.965Z,12.70
2019-06-07T05:51:45.033Z,12.58
2019-06-07T05:54:14.512Z,12.84
2019-06-07T05:56:45.337Z,12.65
2019-06-07T05:59:14.057Z,12.47
2019-06-07T06:01:53.487Z,12.49
2019-06-07T06:04:13.750Z,12.45
2019-06-07T06:06:46.547Z,12.69
2019-06-07T06:09:14.332Z,12.67
2019-06-07T06:11:58.684Z,12.35
2019-06-07T06:14:14.148Z,12.49
2019-06-07T06:16:45.739Z,12.81
2019-06-07T06:19:13.728Z,13.09
2019-06-07T06:21:46.054Z,13.11
2019-06-07T06:24:13.499Z,13.06
2019-06-07T06:26:49.909Z,13.82
2019-06-07T06:29:13.183Z,14.03
2019-06-07T06:32:35.850Z,14.28
2019-06-07T06:34:12.845Z,15.03
2019-06-07T06:36:44.601Z,15.46
2019-06-07T06:39:12.787Z,16.01
2019-06-07T06:41:53.727Z,17.06
2019-06-07T06:44:12.392Z,18.09
2019-06-07T06:46:46.313Z,18.71
2019-06-07T06:49:12.898Z,19.41
2019-06-07T06:51:46.764Z,18.39
2019-06-07T06:54:13.368Z,16.79
2019-06-07T06:56:45.119Z,15.60
2019-06-07T06:59:37.190Z,15.34
2019-06-07T07:01:45.148Z,14.96
2019-06-07T07:04:14.794Z,14.94
2019-06-07T07:06:45.563Z,14.90
2019-06-07T07:09:14.641Z,15.29
2019-06-07T07:11:55.169Z,15.01
2019-06-07T07:14:14.430Z,14.92
2019-06-07T07:16:45.795Z,14.77
2019-06-07T07:19:13.783Z,14.89
2019-06-07T07:21:45.098Z,15.61
2019-06-07T07:24:21.765Z,15.61
2019-06-07T07:26:46.757Z,15.96
2019-06-07T07:29:14.773Z,16.03
2019-06-07T07:31:45.463Z,16.04
2019-06-07T07:34:31.993Z,16.13
2019-06-07T07:36:48.290Z,15.91
2019-06-07T07:39:17.239Z,16.40
2019-06-07T07:42:12.589Z,17.66
2019-06-07T07:44:17.094Z,16.61
2019-06-07T07:46:46.622Z,16.78
2019-06-07T07:49:15.686Z,17.12
2019-06-07T07:51:46.318Z,17.11
2019-06-07T07:54:15.629Z,15.97
2019-06-07T07:56:45.743Z,15.93
2019-06-07T07:59:15.178Z,15.97
2019-06-07T08:01:44.081Z,16.33
2019-06-07T08:04:12.958Z,16.55
2019-06-07T08:06:42.026Z,16.78
2019-06-07T08:09:11.045Z,16.37
2019-06-07T08:11:39.860Z,16.43
2019-06-07T08:14:08.795Z,16.43
2019-06-07T08:16:37.718Z,17.37
2019-06-07T08:19:06.588Z,17.78
2019-06-07T08:21:35.612Z,17.85
2019-06-07T08:24:05.560Z,18.56
2019-06-07T08:26:34.590Z,19.60
2019-06-07T08:29:03.582Z,19.54
2019-06-07T08:31:32.467Z,18.88
2019-06-07T08:34:01.476Z,18.71
2019-06-07T08:36:41.897Z,18.31
2019-06-07T08:39:07.324Z,17.38
2019-06-07T08:41:31.921Z,17.61
2019-06-07T08:44:21.674Z,17.43
2019-06-07T08:46:31.898Z,17.47
2019-06-07T08:49:04.403Z,17.68
2019-06-07T08:51:31.771Z,17.97
2019-06-07T08:54:21.055Z,18.49
2019-06-07T08:56:31.545Z,18.57
2019-06-07T08:59:10.554Z,18.17
2019-06-07T09:01:31.211Z,18.64
2019-06-07T09:04:07.667Z,18.32
2019-06-07T09:09:05.180Z,18.16
2019-06-07T09:11:33.735Z,18.08
2019-06-07T09:14:08.651Z,18.16
2019-06-07T09:16:33.327Z,18.71
2019-06-07T09:19:10.104Z,18.55
2019-06-07T09:21:33.121Z,17.79
2019-06-07T09:24:10.405Z,17.77
2019-06-07T09:26:33.929Z,18.21
2019-06-07T09:29:08.294Z,18.40
2019-06-07T09:31:51.872Z,18.60
2019-06-07T09:34:13.716Z,18.75
2019-06-07T09:36:37.293Z,18.81
2019-06-07T09:39:11.804Z,19.01
2019-06-07T09:41:47.338Z,19.10
2019-06-07T09:44:21.298Z,19.45
2019-06-07T09:46:39.778Z,19.57
2019-06-07T09:49:18.202Z,19.85
2019-06-07T09:51:39.687Z,20.01
2019-06-07T09:54:11.241Z,20.05
2019-06-07T09:56:39.351Z,20.27
2019-06-07T09:59:12.667Z,20.21
2019-06-07T10:01:38.863Z,20.20
2019-06-07T10:04:16.390Z,20.25
2019-06-07T10:06:38.450Z,20.32
2019-06-07T10:11:39.509Z,20.26
2019-06-07T10:14:08.816Z,20.41
2019-06-07T10:16:46.890Z,20.62
2019-06-07T10:19:09.895Z,20.51
2019-06-07T10:21:38.962Z,20.56
2019-06-07T10:24:07.823Z,20.65
2019-06-07T10:26:36.745Z,20.76
2019-06-07T10:29:09.073Z,20.66
2019-06-07T10:31:39.081Z,20.58
2019-06-07T10:34:08.458Z,20.54
2019-06-07T10:36:37.528Z,20.48
2019-06-07T10:39:07.180Z,20.55
2019-06-07T10:41:36.210Z,20.98
2019-06-07T10:44:05.568Z,21.04
2019-06-07T10:46:34.677Z,21.26
2019-06-07T10:49:03.863Z,21.45
2019-06-07T10:51:32.683Z,21.60
2019-06-07T10:54:19.170Z,21.52
2019-06-07T10:56:32.340Z,21.64
2019-06-07T10:59:03.012Z,21.63
2019-06-07T11:01:32.131Z,21.72
2019-06-07T11:04:01.053Z,21.74
2019-06-07T11:06:29.898Z,21.84
2019-06-07T11:08:58.677Z,22.03
2019-06-07T11:11:27.688Z,21.92
2019-06-07T11:13:56.677Z,21.93
2019-06-07T11:16:25.721Z,21.92
2019-06-07T11:18:54.650Z,22.05
2019-06-07T11:21:24.141Z,22.28
2019-06-07T11:23:52.920Z,22.45
2019-06-07T11:26:21.840Z,22.51
2019-06-07T11:28:50.681Z,22.48
2019-06-07T11:31:19.624Z,22.54
2019-06-07T11:33:48.535Z,22.74
2019-06-07T11:36:18.824Z,22.72
2019-06-07T11:38:47.930Z,22.87
2019-06-07T11:41:17.843Z,23.05
2019-06-07T11:43:46.750Z,22.93
2019-06-07T11:46:15.702Z,23.13
2019-06-07T11:48:44.651Z,23.15
2019-06-07T11:51:14.888Z,23.28
2019-06-07T11:53:44.198Z,23.28
2019-06-07T11:56:13.967Z,23.30
2019-06-07T11:58:42.999Z,23.41
2019-06-07T12:01:14.344Z,23.42
2019-06-07T12:03:42.873Z,23.47
2019-06-07T12:06:12.088Z,23.31
2019-06-07T12:08:41.180Z,23.48
2019-06-07T12:11:10.215Z,23.87
2019-06-07T12:13:39.303Z,24.28
2019-06-07T12:16:09.106Z,24.36
2019-06-07T12:18:38.186Z,24.71
2019-06-07T12:21:07.273Z,24.54
2019-06-07T12:23:36.287Z,24.57
2019-06-07T12:26:05.645Z,24.54
2019-06-07T12:28:34.742Z,24.75
2019-06-07T12:31:03.651Z,25.11
2019-06-07T12:33:32.761Z,25.08
2019-06-07T12:36:02.377Z,24.92
2019-06-07T12:38:31.261Z,24.77
2019-06-07T12:41:00.553Z,24.92
2019-06-07T12:43:29.734Z,24.92
2019-06-07T12:45:58.555Z,25.10
2019-06-07T12:48:27.606Z,25.18
2019-06-07T12:50:56.666Z,25.30
2019-06-07T12:53:28.065Z,25.16
2019-06-07T12:56:00.033Z,25.41
2019-06-07T12:58:34.744Z,25.47
2019-06-07T13:00:59.843Z,25.62
2019-06-07T13:03:28.666Z,25.66
2019-06-07T13:05:57.658Z,25.91
2019-06-07T13:08:28.047Z,25.70
2019-06-07T13:11:13.674Z,25.72
2019-06-07T13:13:28.177Z,26.11
2019-06-07T13:15:57.203Z,26.45
2019-06-07T13:18:26.217Z,26.74
2019-06-07T13:20:55.748Z,26.65
2019-06-07T13:23:24.596Z,27.19
2019-06-07T13:25:53.460Z,27.44
2019-06-07T13:28:22.777Z,27.77
2019-06-07T13:30:51.390Z,28.08
2019-06-07T13:33:21.769Z,28.18
2019-06-07T13:35:51.081Z,28.46
2019-06-07T13:38:26.722Z,28.46
2019-06-07T13:40:58.992Z,29.06
2019-06-07T13:43:28.263Z,29.38
2019-06-07T13:45:57.313Z,29.44
2019-06-07T13:48:27.864Z,29.40
2019-06-07T13:50:57.082Z,29.52
2019-06-07T13:53:25.983Z,29.85
2019-06-07T13:55:55.151Z,30.83
2019-06-07T13:58:24.294Z,31.12
2019-06-07T14:00:53.275Z,30.83
2019-06-07T14:03:26.756Z,30.86
2019-06-07T14:05:53.081Z,30.12
2019-06-07T14:08:23.267Z,29.29
2019-06-07T14:10:52.131Z,29.12
2019-06-07T14:13:21.576Z,29.64
2019-06-07T14:15:52.249Z,30.48
2019-06-07T14:18:22.553Z,30.40
2019-06-07T14:20:51.568Z,30.87
2019-06-07T14:23:41.341Z,31.32
2019-06-07T14:25:51.239Z,30.96
2019-06-07T14:28:23.717Z,31.23
2019-06-07T14:30:50.915Z,31.86
2019-06-07T14:33:23.498Z,32.02
2019-06-07T14:35:50.712Z,32.79
2019-06-07T14:38:19.878Z,32.98
2019-06-07T14:40:48.895Z,33.40
2019-06-07T14:43:17.883Z,33.61
2019-06-07T14:45:47.175Z,33.32
2019-06-07T14:48:16.167Z,33.49
2019-06-07T14:50:45.002Z,33.09
2019-06-07T14:53:14.055Z,33.00
2019-06-07T14:55:42.955Z,31.38
2019-06-07T14:58:11.977Z,30.89
2019-06-07T15:00:44.773Z,29.75
2019-06-07T15:03:13.973Z,29.75
2019-06-07T15:05:42.827Z,29.26
2019-06-07T15:08:11.908Z,28.94
2019-06-07T15:10:40.927Z,28.78
2019-06-07T15:13:09.872Z,28.67
2019-06-07T15:15:39.047Z,28.21
2019-06-07T15:18:08.098Z,27.89
2019-06-07T15:20:38.412Z,27.79
2019-06-07T15:23:07.626Z,27.83
2019-06-07T15:25:36.622Z,27.72
2019-06-07T15:28:06.146Z,27.49
2019-06-07T15:30:35.741Z,27.17
2019-06-07T15:33:07.352Z,27.05
2019-06-07T15:35:37.757Z,26.83
2019-06-07T15:38:06.978Z,26.33
2019-06-07T15:40:37.417Z,26.33
2019-06-07T15:43:06.327Z,26.25
2019-06-07T15:45:35.547Z,26.21
2019-06-07T15:48:04.786Z,26.16
2019-06-07T15:50:34.319Z,26.19
2019-06-07T15:53:03.245Z,26.22
2019-06-07T15:55:37.088Z,26.21
2019-06-07T15:58:02.832Z,26.14
2019-06-07T16:00:33.242Z,25.84
2019-06-07T16:03:02.126Z,25.72
2019-06-07T16:05:31.911Z,25.53
2019-06-07T16:08:00.985Z,25.52
2019-06-07T16:10:29.949Z,25.24
2019-06-07T16:13:00.828Z,25.15
2019-06-07T16:15:29.625Z,24.97
2019-06-07T16:17:58.500Z,24.54
2019-06-07T16:20:27.493Z,24.26
2019-06-07T16:22:56.560Z,24.98
2019-06-07T16:25:25.615Z,24.74
2019-06-07T16:27:54.576Z,25.01
2019-06-07T16:30:24.001Z,24.79
2019-06-07T16:32:52.917Z,25.46
2019-06-07T16:35:21.833Z,26.63
2019-06-07T16:37:52.364Z,28.00
2019-06-07T16:40:22.199Z,27.77
2019-06-07T16:42:51.175Z,27.61
2019-06-07T16:45:20.625Z,26.47
2019-06-07T16:47:49.858Z,25.99
2019-06-07T16:50:19.089Z,25.91
2019-06-07T16:52:48.634Z,25.51
2019-06-07T16:55:17.721Z,25.28
2019-06-07T16:57:46.883Z,25.15
2019-06-07T17:00:16.383Z,24.91
2019-06-07T17:02:46.996Z,24.42
2019-06-07T17:05:15.959Z,23.60
2019-06-07T17:07:46.733Z,21.86
2019-06-07T17:10:16.185Z,20.20
2019-06-07T17:12:46.817Z,19.37
2019-06-07T17:15:17.381Z,18.95
2019-06-07T17:17:47.104Z,18.49
2019-06-07T17:20:16.706Z,18.44
2019-06-07T17:22:45.821Z,18.21
2019-06-07T17:25:15.215Z,18.10
2019-06-07T17:27:44.223Z,17.90
2019-06-07T17:30:13.691Z,17.26
2019-06-07T17:32:50.831Z,16.43
2019-06-07T17:35:13.489Z,15.87
2019-06-07T17:37:44.350Z,15.40
2019-06-07T17:40:13.760Z,14.62
2019-06-07T17:42:42.828Z,14.01
2019-06-07T17:45:12.430Z,13.66
2019-06-07T17:47:41.774Z,13.07
2019-06-07T17:50:11.894Z,13.05
2019-06-07T17:52:41.767Z,13.10
2019-06-07T17:55:11.570Z,13.17
2019-06-07T17:57:40.405Z,13.22
2019-06-07T18:02:41.119Z,13.31
2019-06-07T18:05:11.561Z,13.34
2019-06-07T18:07:41.040Z,13.39
2019-06-07T18:10:10.864Z,13.38
2019-06-07T18:12:39.765Z,13.47
2019-06-07T18:15:10.388Z,13.50
2019-06-07T18:17:39.643Z,13.54
2019-06-07T18:20:09.023Z,13.62
2019-06-07T18:22:38.045Z,13.74
2019-06-07T18:25:07.980Z,13.75
2019-06-07T18:27:36.960Z,13.84
2019-06-07T18:30:11.364Z,13.84
2019-06-07T18:32:36.834Z,13.87
2019-06-07T18:35:05.871Z,13.94
2019-06-07T18:37:34.816Z,13.95
2019-06-07T18:40:03.814Z,14.00
2019-06-07T18:42:33.089Z,13.94
2019-06-07T18:45:02.074Z,13.97
2019-06-07T18:47:31.160Z,13.94
2019-06-07T18:50:03.243Z,13.78
2019-06-07T18:52:34.702Z,13.98
2019-06-07T18:55:03.871Z,13.82
2019-06-07T18:57:32.886Z,13.86
2019-06-07T19:00:01.703Z,13.85
2019-06-07T19:02:30.525Z,13.89
2019-06-07T19:04:59.424Z,13.86
2019-06-07T19:07:28.274Z,13.87
2019-06-07T19:09:57.203Z,13.80
2019-06-07T19:12:26.072Z,13.77
2019-06-07T19:14:55.545Z,13.78
2019-06-07T19:17:24.750Z,13.76
2019-06-07T19:19:54.175Z,13.78
2019-06-07T19:22:23.127Z,13.73
2019-06-07T19:24:52.181Z,13.71
2019-06-07T19:27:20.993Z,13.70
2019-06-07T19:29:50.863Z,13.59
2019-06-07T19:32:19.911Z,13.65
2019-06-07T19:34:48.927Z,13.59
2019-06-07T19:37:17.899Z,13.51
2019-06-07T19:39:46.954Z,13.59
2019-06-07T19:42:15.865Z,13.55
2019-06-07T19:44:54.240Z,13.40
2019-06-07T19:47:15.620Z,13.26
2019-06-07T19:49:44.684Z,13.08
2019-06-07T19:52:14.003Z,12.90
2019-06-07T19:54:43.006Z,12.79
2019-06-07T19:57:12.135Z,12.84
2019-06-07T19:59:41.114Z,12.87
2019-06-07T20:02:10.177Z,12.79
2019-06-07T20:04:39.158Z,12.69
2019-06-07T20:07:08.189Z,12.77
2019-06-07T20:09:37.174Z,12.84
2019-06-07T20:12:06.422Z,12.85
2019-06-07T20:14:35.438Z,12.87
2019-06-07T20:17:05.590Z,12.80
2019-06-07T20:19:34.776Z,12.77
2019-06-07T20:22:05.390Z,12.79
2019-06-07T20:24:37.801Z,12.93
2019-06-07T20:27:05.361Z,13.05
2019-06-07T20:29:34.265Z,13.12
2019-06-07T20:32:04.475Z,13.06
2019-06-07T20:34:33.455Z,13.22
2019-06-07T20:37:04.993Z,13.33
2019-06-07T20:39:33.569Z,13.28
2019-06-07T20:42:03.500Z,13.42
2019-06-07T20:44:32.457Z,13.29
2019-06-07T20:47:02.195Z,13.34
2019-06-07T20:49:31.099Z,13.32
2019-06-07T20:52:00.500Z,13.33
2019-06-07T20:54:30.610Z,13.29
2019-06-07T20:57:00.470Z,13.25
2019-06-07T20:59:29.308Z,13.32
2019-06-07T21:01:58.671Z,13.21
2019-06-07T21:04:27.714Z,13.21
2019-06-07T21:06:56.597Z,13.17
2019-06-07T21:09:25.475Z,13.17
2019-06-07T21:11:54.478Z,13.11
2019-06-07T21:14:23.422Z,13.13
2019-06-07T21:16:52.378Z,13.09
2019-06-07T21:19:21.399Z,13.10
2019-06-07T21:21:50.220Z,13.19
2019-06-07T21:24:19.157Z,13.29
2019-06-07T21:26:48.153Z,13.17
2019-06-07T21:29:17.081Z,13.23
2019-06-07T21:31:45.989Z,13.21
2019-06-07T21:34:15.016Z,13.19
2019-06-07T21:36:44.020Z,13.17
2019-06-07T21:39:12.949Z,13.29
2019-06-07T21:41:41.948Z,13.43
2019-06-07T21:44:12.294Z,13.60
2019-06-07T21:46:41.433Z,13.53
2019-06-07T21:49:10.579Z,13.67
2019-06-07T21:51:39.486Z,13.73
2019-06-07T21:54:10.089Z,13.73
2019-06-07T21:56:41.824Z,13.81
2019-06-07T21:59:11.212Z,13.74
2019-06-07T22:01:42.094Z,13.76
2019-06-07T22:04:11.708Z,13.65
2019-06-07T22:06:40.714Z,13.57
2019-06-07T22:09:12.262Z,13.54
2019-06-07T22:11:41.287Z,13.60
2019-06-07T22:14:10.468Z,13.54
2019-06-07T22:16:39.612Z,13.50
2019-06-07T22:19:08.737Z,13.36
2019-06-07T22:21:37.775Z,13.36
2019-06-07T22:24:06.948Z,13.24
2019-06-07T22:26:36.031Z,13.26
2019-06-07T22:29:06.180Z,13.21
2019-06-07T22:31:35.307Z,13.09
2019-06-07T22:34:04.231Z,13.01
2019-06-07T22:36:33.171Z,12.94
2019-06-07T22:39:02.201Z,12.80
2019-06-07T22:41:31.289Z,12.76
2019-06-07T22:44:02.857Z,12.69
2019-06-07T22:46:37.301Z,12.54
2019-06-07T22:49:02.510Z,12.43
2019-06-07T22:51:31.409Z,12.43
2019-06-07T22:54:00.319Z,12.40
2019-06-07T22:56:54.369Z,12.72
2019-06-07T22:59:23.214Z,12.65
2019-06-07T23:01:52.052Z,12.69
2019-06-07T23:04:21.079Z,12.63
2019-06-07T23:06:50.083Z,12.59
2019-06-07T23:09:19.809Z,12.70
2019-06-07T23:11:48.830Z,12.71
2019-06-07T23:14:17.634Z,12.74
2019-06-07T23:16:55.456Z,12.86
2019-06-07T23:19:18.273Z,13.09
2019-06-07T23:21:47.311Z,13.17
2019-06-07T23:24:16.547Z,13.34
2019-06-07T23:26:45.796Z,13.37
2019-06-07T23:29:14.670Z,13.38
2019-06-07T23:31:43.727Z,13.43
2019-06-07T23:34:12.985Z,13.43
2019-06-07T23:36:42.007Z,13.34
2019-06-07T23:39:10.997Z,13.24
2019-06-07T23:41:40.125Z,13.30
2019-06-07T23:44:09.079Z,13.29
2019-06-07T23:46:38.028Z,13.29
2019-06-07T23:49:06.995Z,13.39
2019-06-07T23:51:35.885Z,13.41
2019-06-07T23:54:04.816Z,13.35
2019-06-07T23:56:33.759Z,13.31
2019-06-07T23:59:02.655Z,13.33
